createdAt,value
2023-04-20T00:00:50.999Z,3.53
2023-04-20T00:03:21.898Z,3.88
2023-04-20T00:05:51.827Z,3.72
2023-04-20T00:08:18.757Z,4.20
2023-04-20T00:10:46.441Z,3.78
2023-04-20T00:13:13.451Z,3.55
2023-04-20T00:15:40.499Z,3.75
2023-04-20T00:18:07.453Z,3.70
2023-04-20T00:20:35.207Z,3.45
2023-04-20T00:23:02.361Z,3.60
2023-04-20T00:25:30.584Z,3.60
2023-04-20T00:27:57.710Z,3.33
2023-04-20T00:30:24.576Z,3.20
2023-04-20T00:32:51.491Z,3.38
2023-04-20T00:35:18.614Z,3.40
2023-04-20T00:37:45.677Z,3.60
2023-04-20T00:40:12.742Z,3.40
2023-04-20T00:42:41.622Z,3.70
2023-04-20T00:45:09.541Z,3.22
2023-04-20T00:47:36.587Z,3.38
2023-04-20T00:50:04.395Z,3.08
2023-04-20T00:52:32.405Z,3.22
2023-04-20T00:54:59.589Z,2.78
2023-04-20T00:57:28.094Z,2.70
2023-04-20T00:59:54.909Z,2.65
2023-04-20T01:02:21.740Z,2.70
2023-04-20T01:04:48.645Z,2.80
2023-04-20T01:07:15.551Z,2.78
2023-04-20T01:09:43.160Z,2.50
2023-04-20T01:12:10.589Z,2.58
2023-04-20T01:14:37.737Z,2.90
2023-04-20T01:17:06.054Z,2.70
2023-04-20T01:19:33.857Z,2.90
2023-04-20T01:22:00.664Z,2.60
2023-04-20T01:24:27.867Z,2.85
2023-04-20T01:26:54.773Z,2.90
2023-04-20T01:29:21.739Z,2.65
2023-04-20T01:31:49.662Z,3.53
2023-04-20T01:34:17.774Z,3.42
2023-04-20T01:36:45.318Z,3.72
2023-04-20T01:39:12.634Z,3.35
2023-04-20T01:41:40.154Z,4.10
2023-04-20T01:44:07.026Z,4.05
2023-04-20T01:46:36.765Z,3.60
2023-04-20T01:49:03.844Z,4.00
2023-04-20T01:51:30.720Z,3.95
2023-04-20T01:53:57.542Z,3.28
2023-04-20T01:56:24.444Z,3.53
2023-04-20T01:58:51.373Z,3.58
2023-04-20T02:01:18.430Z,3.58
2023-04-20T02:03:45.689Z,4.28
2023-04-20T02:06:12.655Z,3.80
2023-04-20T02:08:39.425Z,3.90
2023-04-20T02:11:06.677Z,4.20
2023-04-20T02:13:33.872Z,3.88
2023-04-20T02:16:02.471Z,3.83
2023-04-20T02:18:30.339Z,3.53
2023-04-20T02:20:57.466Z,3.90
2023-04-20T02:23:24.388Z,3.95
2023-04-20T02:25:51.382Z,3.88
2023-04-20T02:28:18.299Z,3.83
2023-04-20T02:30:45.141Z,4.10
2023-04-20T02:33:12.014Z,4.53
2023-04-20T02:35:39.018Z,4.50
2023-04-20T02:38:06.031Z,4.40
2023-04-20T02:40:34.099Z,4.30
2023-04-20T02:43:00.912Z,4.28
2023-04-20T02:45:27.906Z,4.03
2023-04-20T02:47:54.836Z,3.60
2023-04-20T02:50:21.788Z,3.30
2023-04-20T02:52:48.838Z,3.22
2023-04-20T02:55:16.066Z,2.83
2023-04-20T02:57:43.069Z,3.10
2023-04-20T03:00:10.338Z,3.58
2023-04-20T03:02:37.587Z,3.20
2023-04-20T03:05:05.101Z,3.30
2023-04-20T03:07:32.046Z,3.95
2023-04-20T03:09:58.792Z,4.40
2023-04-20T03:12:26.694Z,3.47
2023-04-20T03:14:53.494Z,3.67
2023-04-20T03:17:20.539Z,3.80
2023-04-20T03:19:47.342Z,3.50
2023-04-20T03:22:14.198Z,2.75
2023-04-20T03:24:41.231Z,2.70
2023-04-20T03:27:08.057Z,3.25
2023-04-20T03:29:34.899Z,2.92
2023-04-20T03:32:01.943Z,2.97
2023-04-20T03:34:28.756Z,3.40
2023-04-20T03:36:55.628Z,2.67
2023-04-20T03:39:22.495Z,2.63
2023-04-20T03:41:49.433Z,2.55
2023-04-20T03:44:17.104Z,3.00
2023-04-20T03:46:43.904Z,3.15
2023-04-20T03:49:10.721Z,3.50
2023-04-20T03:51:37.608Z,4.38
2023-04-20T03:54:08.276Z,3.53
2023-04-20T03:56:35.276Z,3.40
2023-04-20T03:59:02.062Z,3.65
2023-04-20T04:01:28.881Z,3.35
2023-04-20T04:03:55.927Z,3.03
2023-04-20T04:06:23.972Z,3.35
2023-04-20T04:08:51.034Z,3.00
2023-04-20T04:11:17.882Z,3.15
2023-04-20T04:13:45.024Z,2.60
2023-04-20T04:16:11.847Z,2.30
2023-04-20T04:18:42.103Z,2.40
2023-04-20T04:21:10.444Z,2.50
2023-04-20T04:23:37.796Z,2.92
2023-04-20T04:26:05.854Z,4.00
2023-04-20T04:28:32.610Z,4.00
2023-04-20T04:31:01.502Z,4.00
2023-04-20T04:33:28.877Z,3.60
2023-04-20T04:35:55.717Z,3.55
2023-04-20T04:38:22.932Z,3.88
2023-04-20T04:40:49.966Z,3.85
2023-04-20T04:43:16.807Z,4.40
2023-04-20T04:45:43.676Z,4.07
2023-04-20T04:48:12.480Z,4.35
2023-04-20T04:50:39.818Z,4.53
2023-04-20T04:53:07.209Z,4.13
2023-04-20T04:55:34.032Z,4.70
2023-04-20T04:58:01.780Z,4.60
2023-04-20T05:00:29.386Z,4.07
2023-04-20T05:02:57.024Z,4.32
2023-04-20T05:05:25.485Z,3.28
2023-04-20T05:07:52.452Z,3.25
2023-04-20T05:10:19.525Z,2.88
2023-04-20T05:12:47.613Z,3.30
2023-04-20T05:15:14.793Z,4.13
2023-04-20T05:17:41.782Z,3.15
2023-04-20T05:20:10.767Z,3.00
2023-04-20T05:22:38.029Z,3.30
2023-04-20T05:25:06.554Z,3.72
2023-04-20T05:27:34.312Z,3.40
2023-04-20T05:30:16.599Z,3.28
2023-04-20T05:32:49.320Z,3.63
2023-04-20T05:35:18.163Z,3.13
2023-04-20T05:37:45.110Z,3.33
2023-04-20T05:40:13.391Z,3.70
2023-04-20T05:42:40.956Z,3.40
2023-04-20T05:45:08.942Z,3.53
2023-04-20T05:47:35.859Z,3.28
2023-04-20T05:50:04.658Z,3.00
2023-04-20T05:52:31.903Z,3.83
2023-04-20T05:54:59.633Z,3.60
2023-04-20T05:57:26.539Z,3.28
2023-04-20T05:59:55.988Z,3.10
2023-04-20T06:02:23.048Z,3.47
2023-04-20T06:04:50.326Z,3.33
2023-04-20T06:07:17.660Z,2.95
2023-04-20T06:09:44.503Z,2.83
2023-04-20T06:12:11.472Z,3.10
2023-04-20T06:14:38.451Z,4.60
2023-04-20T06:17:05.276Z,3.50
2023-04-20T06:19:32.338Z,3.25
2023-04-20T06:22:00.988Z,3.45
2023-04-20T06:24:28.287Z,3.33
2023-04-20T06:26:55.372Z,3.45
2023-04-20T06:29:24.272Z,3.40
2023-04-20T06:31:51.151Z,3.72
2023-04-20T06:34:18.171Z,3.72
2023-04-20T06:36:45.045Z,4.07
2023-04-20T06:39:11.907Z,3.92
2023-04-20T06:41:39.180Z,4.10
2023-04-20T06:44:06.217Z,4.20
2023-04-20T06:46:33.317Z,4.43
2023-04-20T06:49:00.402Z,4.55
2023-04-20T06:51:28.426Z,4.63
2023-04-20T06:53:57.168Z,4.57
2023-04-20T06:56:24.123Z,4.78
2023-04-20T06:58:51.256Z,4.88
2023-04-20T07:01:18.247Z,4.97
2023-04-20T07:03:47.126Z,5.00
2023-04-20T07:06:14.205Z,5.00
2023-04-20T07:08:41.189Z,5.60
2023-04-20T07:11:08.063Z,5.32
2023-04-20T07:13:35.018Z,4.95
2023-04-20T07:16:02.152Z,5.68
2023-04-20T07:18:29.134Z,5.20
2023-04-20T07:20:56.153Z,5.53
2023-04-20T07:23:23.086Z,5.05
2023-04-20T07:25:50.002Z,5.82
2023-04-20T07:28:16.799Z,5.40
2023-04-20T07:30:43.722Z,5.88
2023-04-20T07:33:11.245Z,5.63
2023-04-20T07:35:38.232Z,5.55
2023-04-20T07:38:05.194Z,5.65
2023-04-20T07:40:32.076Z,5.40
2023-04-20T07:42:58.978Z,5.82
2023-04-20T07:45:26.072Z,5.45
2023-04-20T07:47:54.412Z,5.78
2023-04-20T07:50:21.902Z,5.75
2023-04-20T07:52:48.770Z,5.50
2023-04-20T07:55:17.421Z,5.80
2023-04-20T07:57:44.833Z,5.65
2023-04-20T08:00:13.496Z,5.90
2023-04-20T08:02:40.956Z,5.53
2023-04-20T08:05:10.241Z,5.40
2023-04-20T08:07:37.534Z,5.30
2023-04-20T08:10:05.797Z,6.05
2023-04-20T08:12:33.193Z,6.05
2023-04-20T08:15:01.998Z,5.93
2023-04-20T08:17:28.894Z,5.47
2023-04-20T08:19:55.928Z,5.65
2023-04-20T08:22:24.451Z,5.90
2023-04-20T08:24:51.551Z,5.95
2023-04-20T08:27:18.890Z,5.75
2023-04-20T08:29:46.081Z,6.38
2023-04-20T08:32:14.094Z,5.88
2023-04-20T08:34:41.336Z,5.93
2023-04-20T08:37:09.014Z,6.15
2023-04-20T08:39:36.565Z,6.28
2023-04-20T08:42:03.653Z,5.93
2023-04-20T08:44:30.643Z,5.72
2023-04-20T08:46:58.054Z,6.18
2023-04-20T08:49:28.339Z,6.30
2023-04-20T08:51:55.261Z,5.63
2023-04-20T08:54:24.225Z,5.60
2023-04-20T08:56:51.647Z,6.47
2023-04-20T08:59:18.497Z,4.97
2023-04-20T09:01:46.458Z,5.00
2023-04-20T09:04:24.909Z,4.68
2023-04-20T09:06:54.419Z,5.03
2023-04-20T09:09:22.984Z,4.80
2023-04-20T09:12:07.674Z,4.70
2023-04-20T09:14:48.185Z,4.78
2023-04-20T09:17:16.327Z,4.63
2023-04-20T09:19:44.867Z,4.70
2023-04-20T09:22:12.215Z,4.90
2023-04-20T09:24:40.880Z,5.32
2023-04-20T09:27:18.603Z,4.95
2023-04-20T09:30:00.360Z,4.65
2023-04-20T09:32:29.156Z,4.68
2023-04-20T09:34:56.903Z,5.10
2023-04-20T09:37:24.035Z,5.45
2023-04-20T09:39:51.131Z,5.28
2023-04-20T09:42:18.633Z,6.10
2023-04-20T09:44:45.553Z,4.78
2023-04-20T09:47:21.204Z,4.18
2023-04-20T09:49:48.166Z,3.95
2023-04-20T09:52:23.460Z,4.35
2023-04-20T09:54:51.898Z,4.20
2023-04-20T09:57:19.877Z,4.05
2023-04-20T09:59:47.452Z,4.72
2023-04-20T10:02:15.025Z,4.55
2023-04-20T10:05:11.634Z,5.05
2023-04-20T10:07:38.568Z,4.22
2023-04-20T10:10:14.222Z,4.53
2023-04-20T10:12:58.327Z,4.38
2023-04-20T10:18:03.337Z,4.35
2023-04-20T10:20:30.388Z,4.47
2023-04-20T10:23:10.438Z,4.50
2023-04-20T10:25:38.010Z,4.40
2023-04-20T10:28:09.718Z,4.72
2023-04-20T10:30:37.882Z,4.18
2023-04-20T10:33:06.064Z,4.80
2023-04-20T10:35:55.059Z,4.60
2023-04-20T10:38:35.964Z,4.50
2023-04-20T10:41:08.767Z,4.75
2023-04-20T10:43:36.264Z,4.80
2023-04-20T10:46:12.968Z,4.40
2023-04-20T10:48:49.227Z,4.05
2023-04-20T10:51:20.095Z,4.22
2023-04-20T10:53:47.073Z,4.07
2023-04-20T10:56:14.164Z,3.72
2023-04-20T10:58:42.346Z,4.00
2023-04-20T11:01:09.314Z,4.00
2023-04-20T11:03:36.387Z,3.85
2023-04-20T11:06:04.316Z,3.70
2023-04-20T11:08:39.182Z,3.78
2023-04-20T11:11:17.372Z,3.13
2023-04-20T11:13:44.297Z,3.72
2023-04-20T11:16:13.573Z,3.90
2023-04-20T11:18:54.305Z,3.30
2023-04-20T11:21:22.491Z,3.97
2023-04-20T11:23:52.583Z,3.45
2023-04-20T11:26:19.531Z,2.65
2023-04-20T11:28:55.919Z,3.10
2023-04-20T11:31:23.671Z,2.60
2023-04-20T11:33:50.994Z,3.08
2023-04-20T11:36:23.259Z,2.80
2023-04-20T11:38:50.948Z,2.42
2023-04-20T11:41:18.480Z,2.75
2023-04-20T11:43:46.295Z,2.63
2023-04-20T11:46:17.754Z,2.70
2023-04-20T11:48:48.199Z,2.90
2023-04-20T11:51:15.648Z,2.63
2023-04-20T11:53:42.721Z,3.05
2023-04-20T11:56:10.309Z,2.80
2023-04-20T11:58:37.287Z,2.38
2023-04-20T12:01:05.559Z,2.47
2023-04-20T12:03:33.418Z,2.70
2023-04-20T12:06:00.809Z,2.60
2023-04-20T12:08:27.722Z,3.10
2023-04-20T12:10:56.666Z,2.78
2023-04-20T12:13:28.430Z,2.60
2023-04-20T12:15:55.310Z,2.30
2023-04-20T12:18:23.299Z,2.80
2023-04-20T12:20:50.348Z,2.50
2023-04-20T12:23:17.866Z,2.42
2023-04-20T12:25:44.736Z,2.53
2023-04-20T12:28:11.601Z,2.72
2023-04-20T12:30:38.654Z,2.80
2023-04-20T12:33:05.873Z,2.50
2023-04-20T12:35:32.968Z,2.42
2023-04-20T12:37:59.783Z,2.90
2023-04-20T12:40:27.006Z,2.65
2023-04-20T12:42:53.945Z,2.88
2023-04-20T12:45:20.889Z,2.53
2023-04-20T12:47:47.809Z,2.40
2023-04-20T12:50:14.989Z,2.58
2023-04-20T12:52:41.796Z,2.63
2023-04-20T12:55:09.178Z,3.92
2023-04-20T12:57:36.331Z,2.40
2023-04-20T13:00:06.413Z,2.47
2023-04-20T13:02:33.868Z,2.50
2023-04-20T13:05:00.943Z,2.40
2023-04-20T13:07:28.188Z,2.53
2023-04-20T13:09:55.142Z,2.58
2023-04-20T13:12:22.155Z,2.83
2023-04-20T13:14:49.147Z,2.75
2023-04-20T13:17:16.076Z,2.78
2023-04-20T13:19:43.445Z,2.65
2023-04-20T13:22:12.374Z,2.70
2023-04-20T13:24:41.942Z,2.78
2023-04-20T13:27:09.224Z,2.67
2023-04-20T13:29:36.133Z,2.90
2023-04-20T13:32:03.135Z,2.70
2023-04-20T13:34:30.017Z,2.50
2023-04-20T13:36:58.490Z,2.40
2023-04-20T13:39:27.900Z,2.63
2023-04-20T13:41:55.483Z,2.42
2023-04-20T13:44:22.483Z,2.40
2023-04-20T13:46:49.603Z,2.33
2023-04-20T13:49:17.087Z,2.45
2023-04-20T13:51:44.077Z,2.65
2023-04-20T13:54:10.936Z,2.70
2023-04-20T13:56:37.839Z,3.10
2023-04-20T13:59:04.692Z,3.05
2023-04-20T14:01:31.886Z,2.90
2023-04-20T14:03:59.299Z,3.00
2023-04-20T14:06:27.638Z,3.13
2023-04-20T14:08:54.764Z,3.40
2023-04-20T14:11:21.592Z,2.95
2023-04-20T14:13:48.789Z,3.78
2023-04-20T14:16:15.942Z,5.40
2023-04-20T14:18:42.857Z,5.05
2023-04-20T14:21:09.809Z,3.85
2023-04-20T14:23:36.763Z,3.70
2023-04-20T14:26:04.181Z,3.50
2023-04-20T14:28:33.263Z,3.40
2023-04-20T14:31:04.554Z,3.60
2023-04-20T14:33:31.552Z,3.45
2023-04-20T14:35:58.544Z,3.35
2023-04-20T14:38:25.574Z,3.38
2023-04-20T14:40:52.769Z,3.50
2023-04-20T14:43:19.693Z,3.30
2023-04-20T14:45:46.933Z,3.35
2023-04-20T14:48:13.842Z,3.53
2023-04-20T14:50:40.690Z,3.00
2023-04-20T14:53:07.728Z,2.30
2023-04-20T14:55:34.803Z,2.85
2023-04-20T14:58:01.709Z,2.45
2023-04-20T15:00:28.856Z,3.00
2023-04-20T15:02:56.875Z,2.85
2023-04-20T15:05:26.074Z,2.45
2023-04-20T15:07:53.282Z,2.10
2023-04-20T15:10:21.205Z,2.30
2023-04-20T15:12:48.578Z,2.22
2023-04-20T15:15:17.467Z,2.10
2023-04-20T15:17:46.650Z,1.80
2023-04-20T15:20:15.519Z,1.90
2023-04-20T15:22:42.566Z,1.85
2023-04-20T15:25:09.891Z,1.70
2023-04-20T15:27:36.831Z,2.40
2023-04-20T15:30:06.605Z,2.15
2023-04-20T15:32:36.473Z,1.90
2023-04-20T15:35:03.714Z,2.00
2023-04-20T15:37:30.664Z,2.13
2023-04-20T15:39:59.436Z,1.98
2023-04-20T15:42:27.527Z,1.92
2023-04-20T15:44:54.576Z,2.05
2023-04-20T15:47:21.592Z,2.45
2023-04-20T15:49:52.618Z,2.50
2023-04-20T15:52:20.452Z,2.13
2023-04-20T15:54:48.446Z,2.30
2023-04-20T15:57:15.531Z,2.05
2023-04-20T15:59:44.069Z,1.95
2023-04-20T16:02:11.127Z,1.63
2023-04-20T16:04:38.378Z,1.83
2023-04-20T16:07:05.466Z,1.80
2023-04-20T16:09:32.337Z,2.00
2023-04-20T16:11:59.225Z,1.67
2023-04-20T16:14:26.146Z,1.98
2023-04-20T16:16:52.989Z,1.70
2023-04-20T16:19:19.856Z,1.38
2023-04-20T16:21:46.873Z,1.40
2023-04-20T16:24:14.477Z,1.63
2023-04-20T16:26:41.413Z,1.50
2023-04-20T16:29:08.293Z,1.67
2023-04-20T16:31:36.786Z,1.60
2023-04-20T16:34:04.418Z,1.65
2023-04-20T16:36:31.384Z,1.90
2023-04-20T16:38:58.225Z,1.60
2023-04-20T16:41:26.073Z,1.60
2023-04-20T16:43:53.160Z,1.70
2023-04-20T16:46:22.345Z,1.52
2023-04-20T16:48:50.884Z,1.95
2023-04-20T16:51:17.816Z,1.60
2023-04-20T16:53:45.492Z,1.70
2023-04-20T16:56:12.809Z,1.60
2023-04-20T16:58:39.703Z,2.00
2023-04-20T17:01:08.060Z,2.05
2023-04-20T17:03:35.837Z,2.63
2023-04-20T17:06:07.654Z,2.88
2023-04-20T17:08:34.758Z,2.78
2023-04-20T17:11:02.074Z,2.28
2023-04-20T17:13:29.022Z,2.05
2023-04-20T17:15:56.434Z,2.25
2023-04-20T17:18:23.939Z,1.77
2023-04-20T17:20:51.114Z,1.80
2023-04-20T17:23:19.334Z,1.67
2023-04-20T17:25:47.736Z,2.00
2023-04-20T17:28:16.153Z,1.80
2023-04-20T17:30:42.992Z,2.42
2023-04-20T17:33:12.372Z,2.15
2023-04-20T17:35:39.679Z,2.20
2023-04-20T17:38:07.121Z,2.17
2023-04-20T17:40:34.017Z,2.70
2023-04-20T17:43:01.731Z,2.60
2023-04-20T17:45:28.847Z,2.40
2023-04-20T17:47:55.997Z,2.53
2023-04-20T17:50:24.570Z,2.30
2023-04-20T17:52:51.910Z,1.90
2023-04-20T17:55:18.757Z,2.35
2023-04-20T17:57:45.786Z,2.03
2023-04-20T18:00:13.321Z,2.10
2023-04-20T18:02:40.480Z,2.03
2023-04-20T18:05:07.961Z,2.00
2023-04-20T18:07:34.988Z,2.22
2023-04-20T18:10:01.874Z,2.40
2023-04-20T18:12:28.803Z,2.20
2023-04-20T18:14:55.705Z,2.40
2023-04-20T18:17:22.882Z,2.40
2023-04-20T18:19:49.793Z,2.45
2023-04-20T18:22:16.792Z,2.50
2023-04-20T18:24:43.767Z,2.70
2023-04-20T18:27:10.594Z,2.45
2023-04-20T18:29:37.982Z,2.60
2023-04-20T18:32:04.904Z,2.65
2023-04-20T18:34:32.301Z,2.40
2023-04-20T18:36:59.440Z,2.60
2023-04-20T18:39:26.385Z,2.67
2023-04-20T18:41:53.241Z,2.65
2023-04-20T18:44:20.562Z,3.17
2023-04-20T18:46:47.771Z,3.28
2023-04-20T18:49:15.984Z,3.10
2023-04-20T18:51:42.834Z,2.90
2023-04-20T18:54:09.689Z,3.58
2023-04-20T18:56:39.639Z,3.45
2023-04-20T18:59:08.509Z,3.40
2023-04-20T19:01:40.390Z,3.90
2023-04-20T19:04:10.727Z,3.67
2023-04-20T19:06:37.721Z,3.35
2023-04-20T19:09:07.285Z,3.38
2023-04-20T19:11:35.225Z,3.30
2023-04-20T19:14:02.095Z,2.95
2023-04-20T19:16:33.864Z,3.78
2023-04-20T19:19:01.216Z,3.60
2023-04-20T19:21:29.897Z,3.30
2023-04-20T19:23:56.952Z,3.75
2023-04-20T19:26:25.070Z,3.60
2023-04-20T19:28:54.246Z,4.53
2023-04-20T19:31:21.127Z,4.10
2023-04-20T19:33:48.114Z,3.90
2023-04-20T19:36:15.038Z,4.28
2023-04-20T19:38:42.267Z,4.32
2023-04-20T19:41:09.619Z,3.70
2023-04-20T19:43:37.657Z,3.90
2023-04-20T19:46:04.791Z,4.57
2023-04-20T19:48:31.973Z,4.75
2023-04-20T19:50:59.758Z,4.38
2023-04-20T19:53:27.166Z,5.13
2023-04-20T19:55:54.073Z,5.32
2023-04-20T19:58:21.019Z,5.57
2023-04-20T20:00:48.010Z,5.70
2023-04-20T20:03:16.333Z,6.78
2023-04-20T20:05:44.680Z,6.90
2023-04-20T20:08:12.040Z,7.00
2023-04-20T20:10:39.115Z,6.55
2023-04-20T20:13:06.550Z,6.82
2023-04-20T20:15:33.498Z,5.80
2023-04-20T20:18:00.735Z,5.60
2023-04-20T20:20:31.478Z,6.10
2023-04-20T20:22:59.980Z,5.78
2023-04-20T20:25:28.011Z,5.13
2023-04-20T20:27:55.030Z,6.05
2023-04-20T20:30:22.163Z,6.15
2023-04-20T20:32:49.281Z,6.10
2023-04-20T20:35:16.546Z,6.10
2023-04-20T20:37:45.448Z,6.30
2023-04-20T20:40:15.459Z,6.35
2023-04-20T20:42:42.933Z,6.05
2023-04-20T20:45:12.542Z,6.13
2023-04-20T20:47:42.550Z,6.22
2023-04-20T20:50:13.222Z,6.35
2023-04-20T20:52:40.396Z,7.45
2023-04-20T20:55:08.817Z,7.43
2023-04-20T20:57:36.393Z,7.47
2023-04-20T21:00:10.437Z,7.57
2023-04-20T21:02:37.995Z,7.18
2023-04-20T21:05:05.900Z,7.15
2023-04-20T21:07:33.041Z,6.50
2023-04-20T21:10:00.164Z,6.68
2023-04-20T21:12:28.291Z,6.55
2023-04-20T21:14:55.476Z,6.10
2023-04-20T21:17:22.405Z,6.53
2023-04-20T21:19:49.317Z,6.93
2023-04-20T21:22:16.184Z,6.20
2023-04-20T21:24:42.990Z,7.10
2023-04-20T21:27:09.951Z,6.30
2023-04-20T21:29:40.517Z,6.28
2023-04-20T21:32:07.467Z,6.20
2023-04-20T21:34:34.588Z,6.15
2023-04-20T21:37:05.284Z,6.10
2023-04-20T21:39:32.476Z,6.22
2023-04-20T21:41:59.971Z,5.82
2023-04-20T21:44:27.186Z,5.45
2023-04-20T21:46:54.095Z,5.85
2023-04-20T21:49:21.256Z,4.95
2023-04-20T21:51:48.179Z,5.28
2023-04-20T21:54:15.479Z,5.10
2023-04-20T21:56:42.362Z,5.00
2023-04-20T21:59:09.202Z,5.50
2023-04-20T22:01:36.264Z,4.85
2023-04-20T22:04:04.075Z,5.07
2023-04-20T22:06:34.746Z,4.75
2023-04-20T22:09:02.218Z,5.18
2023-04-20T22:11:29.769Z,4.78
2023-04-20T22:14:00.740Z,4.70
2023-04-20T22:16:28.950Z,4.38
2023-04-20T22:18:55.870Z,4.85
2023-04-20T22:21:22.774Z,5.03
2023-04-20T22:23:49.755Z,4.20
2023-04-20T22:26:16.945Z,4.72
2023-04-20T22:28:43.832Z,4.38
2023-04-20T22:31:10.940Z,4.20
2023-04-20T22:33:38.006Z,4.53
2023-04-20T22:36:05.378Z,4.72
2023-04-20T22:38:35.760Z,4.38
2023-04-20T22:41:02.860Z,4.32
2023-04-20T22:43:29.749Z,4.25
2023-04-20T22:45:56.748Z,4.28
2023-04-20T22:48:23.690Z,4.60
2023-04-20T22:50:51.317Z,4.28
2023-04-20T22:53:18.250Z,4.10
2023-04-20T22:55:46.217Z,4.50
2023-04-20T22:58:13.163Z,4.22
2023-04-20T23:00:40.268Z,4.43
2023-04-20T23:03:07.536Z,4.30
2023-04-20T23:05:35.579Z,4.40
2023-04-20T23:08:02.690Z,4.53
2023-04-20T23:10:29.782Z,4.72
2023-04-20T23:12:56.847Z,5.63
2023-04-20T23:15:23.879Z,5.78
2023-04-20T23:17:51.038Z,6.03
2023-04-20T23:20:18.146Z,6.20
2023-04-20T23:22:45.165Z,5.78
2023-04-20T23:25:12.280Z,6.35
2023-04-20T23:27:39.300Z,5.78
2023-04-20T23:30:07.363Z,6.03
2023-04-20T23:32:34.338Z,5.63
2023-04-20T23:35:01.483Z,5.95
2023-04-20T23:37:28.432Z,6.25
2023-04-20T23:39:58.279Z,5.88
2023-04-20T23:42:25.280Z,5.90
2023-04-20T23:44:52.339Z,6.40
2023-04-20T23:47:19.186Z,5.95
2023-04-20T23:49:46.081Z,6.32
2023-04-20T23:52:13.036Z,6.47
2023-04-20T23:54:40.010Z,5.60
2023-04-20T23:57:07.051Z,6.05
2023-04-20T23:59:36.954Z,5.95
